createdAt,value
2018-05-23T00:01:38.581Z,21.10
2018-05-23T00:04:06.728Z,21.10
2018-05-23T00:06:34.843Z,21.10
2018-05-23T00:09:02.957Z,21.10
2018-05-23T00:11:31.075Z,21.00
2018-05-23T00:13:59.180Z,21.00
2018-05-23T00:16:27.299Z,21.00
2018-05-23T00:18:55.401Z,21.00
2018-05-23T00:21:23.524Z,21.00
2018-05-23T00:23:52.401Z,20.90
2018-05-23T00:26:20.501Z,20.90
2018-05-23T00:28:49.380Z,20.90
2018-05-23T00:31:18.271Z,20.80
2018-05-23T00:33:46.402Z,20.80
2018-05-23T00:36:14.501Z,20.70
2018-05-23T00:38:42.600Z,20.70
2018-05-23T00:41:10.717Z,20.60
2018-05-23T00:43:38.826Z,20.60
2018-05-23T00:46:06.946Z,20.60
2018-05-23T00:48:35.813Z,20.60
2018-05-23T00:51:03.931Z,20.60
2018-05-23T00:53:32.037Z,20.50
2018-05-23T00:56:00.161Z,20.50
2018-05-23T00:58:29.041Z,20.50
2018-05-23T01:00:57.140Z,20.50
2018-05-23T01:03:26.017Z,20.40
2018-05-23T01:05:54.135Z,20.40
2018-05-23T01:08:22.252Z,20.30
2018-05-23T01:10:50.363Z,20.30
2018-05-23T01:13:19.262Z,20.20
2018-05-23T01:15:48.139Z,20.20
2018-05-23T01:18:16.248Z,20.20
2018-05-23T01:20:44.373Z,20.20
2018-05-23T01:23:12.485Z,20.20
2018-05-23T01:25:41.360Z,20.20
2018-05-23T01:28:10.243Z,20.20
2018-05-23T01:30:38.373Z,20.10
2018-05-23T01:33:06.478Z,20.10
2018-05-23T01:35:34.584Z,20.10
2018-05-23T01:38:02.713Z,20.10
2018-05-23T01:40:30.818Z,20.00
2018-05-23T01:42:59.033Z,20.00
2018-05-23T01:45:27.128Z,20.00
2018-05-23T01:47:55.250Z,19.90
2018-05-23T01:50:23.350Z,19.90
2018-05-23T01:52:51.481Z,19.90
2018-05-23T01:55:19.581Z,19.90
2018-05-23T01:57:47.685Z,19.90
2018-05-23T02:00:15.806Z,19.90
2018-05-23T02:02:43.909Z,19.90
2018-05-23T02:05:12.034Z,19.80
2018-05-23T02:07:40.902Z,19.80
2018-05-23T02:10:09.051Z,19.80
2018-05-23T02:12:37.163Z,19.80
2018-05-23T02:15:05.267Z,19.80
2018-05-23T02:17:34.140Z,19.70
2018-05-23T02:20:02.251Z,19.70
2018-05-23T02:22:30.372Z,19.70
2018-05-23T02:24:58.485Z,19.70
2018-05-23T02:27:27.354Z,19.70
2018-05-23T02:29:55.461Z,19.70
2018-05-23T02:32:24.340Z,19.70
2018-05-23T02:34:53.226Z,19.70
2018-05-23T02:37:21.393Z,19.70
2018-05-23T02:39:49.502Z,19.70
2018-05-23T02:42:18.381Z,19.70
2018-05-23T02:44:46.535Z,19.60
2018-05-23T02:47:14.705Z,19.60
2018-05-23T02:49:43.546Z,19.60
2018-05-23T02:52:12.443Z,19.60
2018-05-23T02:54:41.313Z,19.60
2018-05-23T02:57:09.444Z,19.60
2018-05-23T02:59:37.557Z,19.60
2018-05-23T03:02:05.702Z,19.60
2018-05-23T03:04:33.827Z,19.70
2018-05-23T03:07:01.932Z,19.70
2018-05-23T03:09:30.821Z,19.70
2018-05-23T03:11:59.771Z,19.70
2018-05-23T03:14:27.909Z,19.70
2018-05-23T03:16:56.017Z,19.70
2018-05-23T03:19:24.141Z,19.70
2018-05-23T03:21:53.031Z,19.70
2018-05-23T03:24:21.136Z,19.70
2018-05-23T03:26:49.255Z,19.70
2018-05-23T03:29:17.344Z,19.70
2018-05-23T03:31:45.455Z,19.70
2018-05-23T03:34:14.345Z,19.70
2018-05-23T03:36:43.242Z,19.70
2018-05-23T03:39:12.116Z,19.70
2018-05-23T03:41:40.225Z,19.80
2018-05-23T03:44:08.369Z,19.80
2018-05-23T03:46:36.472Z,19.80
2018-05-23T03:49:05.349Z,19.80
2018-05-23T03:51:34.223Z,19.80
2018-05-23T03:54:02.359Z,19.90
2018-05-23T03:56:30.452Z,19.90
2018-05-23T03:58:58.570Z,19.90
2018-05-23T04:01:44.679Z,19.90
2018-05-23T04:04:31.573Z,19.90
2018-05-23T04:10:15.817Z,19.90
2018-05-23T04:12:44.691Z,19.90
2018-05-23T04:15:12.806Z,20.00
2018-05-23T04:17:41.699Z,20.00
2018-05-23T04:20:10.573Z,20.00
2018-05-23T04:22:38.710Z,20.10
2018-05-23T04:25:06.891Z,20.10
2018-05-23T04:27:35.040Z,20.10
2018-05-23T04:30:03.150Z,20.10
2018-05-23T04:32:31.285Z,20.20
2018-05-23T04:35:00.199Z,20.20
2018-05-23T04:37:28.292Z,20.20
2018-05-23T04:39:56.410Z,20.20
2018-05-23T04:42:24.525Z,20.30
2018-05-23T04:44:52.655Z,20.30
2018-05-23T04:47:20.776Z,20.30
2018-05-23T04:49:48.916Z,20.40
2018-05-23T04:52:17.072Z,20.40
2018-05-23T04:54:45.954Z,20.40
2018-05-23T04:57:14.090Z,20.50
2018-05-23T04:59:42.209Z,20.50
2018-05-23T05:02:10.335Z,20.60
2018-05-23T05:04:39.236Z,20.70
2018-05-23T05:07:08.122Z,20.70
2018-05-23T05:09:36.985Z,20.70
2018-05-23T05:12:05.104Z,20.80
2018-05-23T05:14:33.986Z,20.90
2018-05-23T05:17:02.205Z,20.90
2018-05-23T05:19:30.310Z,20.90
2018-05-23T05:21:59.182Z,21.00
2018-05-23T05:24:27.317Z,21.00
2018-05-23T05:26:56.182Z,21.10
2018-05-23T05:29:24.381Z,21.10
2018-05-23T05:31:53.363Z,21.10
2018-05-23T05:34:22.249Z,21.20
2018-05-23T05:36:50.377Z,21.30
2018-05-23T05:39:19.277Z,21.40
2018-05-23T05:41:47.401Z,21.40
2018-05-23T05:44:15.512Z,21.50
2018-05-23T05:46:44.395Z,21.60
2018-05-23T05:49:12.543Z,21.70
2018-05-23T05:51:40.664Z,21.80
2018-05-23T05:54:09.558Z,21.90
2018-05-23T05:56:38.433Z,22.10
2018-05-23T05:59:06.566Z,22.20
2018-05-23T06:01:34.706Z,22.30
2018-05-23T06:04:03.594Z,22.40
2018-05-23T06:06:32.515Z,22.60
2018-05-23T06:09:00.632Z,22.70
2018-05-23T06:11:28.791Z,22.90
2018-05-23T06:13:56.912Z,23.10
2018-05-23T06:16:25.016Z,23.20
2018-05-23T06:18:53.960Z,23.40
2018-05-23T06:21:22.107Z,23.50
2018-05-23T06:23:50.248Z,23.60
2018-05-23T06:26:18.385Z,23.70
2018-05-23T06:28:46.495Z,23.70
2018-05-23T06:31:14.714Z,23.80
2018-05-23T06:33:42.857Z,23.90
2018-05-23T06:36:11.001Z,24.00
2018-05-23T06:38:39.116Z,24.00
2018-05-23T06:41:07.221Z,24.10
2018-05-23T06:43:35.361Z,24.10
2018-05-23T06:46:03.464Z,24.10
2018-05-23T06:48:32.352Z,24.20
2018-05-23T06:51:01.233Z,24.20
2018-05-23T06:53:29.370Z,24.30
2018-05-23T06:55:57.479Z,24.30
2018-05-23T06:58:25.624Z,24.30
2018-05-23T07:00:53.736Z,24.30
2018-05-23T07:03:21.870Z,24.40
2018-05-23T07:05:50.008Z,24.40
2018-05-23T07:08:18.885Z,24.50
2018-05-23T07:10:47.013Z,24.60
2018-05-23T07:13:15.116Z,24.80
2018-05-23T07:15:43.251Z,25.00
2018-05-23T07:18:11.417Z,25.20
2018-05-23T07:20:39.496Z,25.30
2018-05-23T07:23:08.354Z,25.50
2018-05-23T07:25:37.277Z,25.60
2018-05-23T07:28:06.155Z,25.70
2018-05-23T07:30:34.283Z,25.80
2018-05-23T07:33:02.395Z,25.90
2018-05-23T07:35:30.645Z,26.00
2018-05-23T07:37:58.755Z,26.10
2018-05-23T07:40:26.901Z,26.10
2018-05-23T07:42:55.009Z,26.30
2018-05-23T07:45:23.117Z,26.40
2018-05-23T07:47:52.009Z,26.50
2018-05-23T07:50:20.882Z,26.70
2018-05-23T07:52:49.011Z,26.90
2018-05-23T07:55:17.124Z,27.00
2018-05-23T07:57:45.248Z,27.10
2018-05-23T08:00:14.121Z,27.30
2018-05-23T08:02:42.249Z,27.40
2018-05-23T08:05:10.367Z,27.50
2018-05-23T08:07:38.480Z,27.60
2018-05-23T08:10:07.355Z,27.60
2018-05-23T08:12:36.233Z,27.70
2018-05-23T08:15:04.365Z,27.70
2018-05-23T08:17:32.487Z,27.80
2018-05-23T08:20:00.629Z,27.80
2018-05-23T08:22:28.737Z,27.90
2018-05-23T08:24:56.847Z,27.90
2018-05-23T08:27:25.736Z,27.90
2018-05-23T08:29:54.639Z,27.90
2018-05-23T08:32:22.750Z,28.00
2018-05-23T08:34:50.854Z,28.00
2018-05-23T08:37:18.973Z,28.00
2018-05-23T08:39:47.844Z,28.00
2018-05-23T08:42:15.985Z,28.00
2018-05-23T08:44:44.098Z,28.00
2018-05-23T08:47:12.208Z,28.10
2018-05-23T08:49:40.338Z,28.10
2018-05-23T08:52:08.445Z,28.10
2018-05-23T08:54:37.351Z,28.20
2018-05-23T08:57:05.465Z,28.20
2018-05-23T08:59:33.577Z,28.20
2018-05-23T09:02:01.677Z,28.30
2018-05-23T09:04:29.819Z,28.30
2018-05-23T09:06:57.922Z,28.30
2018-05-23T09:09:26.785Z,28.20
2018-05-23T09:11:55.684Z,28.20
2018-05-23T09:14:23.793Z,28.20
2018-05-23T09:16:52.739Z,28.20
2018-05-23T09:19:20.845Z,28.10
2018-05-23T09:21:48.988Z,28.10
2018-05-23T09:24:17.099Z,28.10
2018-05-23T09:26:45.228Z,28.10
2018-05-23T09:29:13.354Z,28.00
2018-05-23T09:31:41.478Z,27.90
2018-05-23T09:34:09.625Z,27.90
2018-05-23T09:36:38.494Z,27.80
2018-05-23T09:39:06.671Z,27.80
2018-05-23T09:41:34.758Z,27.70
2018-05-23T09:44:02.896Z,27.70
2018-05-23T09:46:31.013Z,27.60
2018-05-23T09:48:59.126Z,27.60
2018-05-23T09:51:27.241Z,27.60
2018-05-23T09:53:55.363Z,27.50
2018-05-23T09:56:23.507Z,27.50
2018-05-23T09:58:51.621Z,27.40
2018-05-23T10:01:20.517Z,27.40
2018-05-23T10:03:49.390Z,27.40
2018-05-23T10:06:17.496Z,27.40
2018-05-23T10:08:45.613Z,27.40
2018-05-23T10:11:13.741Z,27.40
2018-05-23T10:13:42.627Z,27.30
2018-05-23T10:16:11.500Z,27.30
2018-05-23T10:18:39.609Z,27.30
2018-05-23T10:21:08.496Z,27.30
2018-05-23T10:23:37.396Z,27.30
2018-05-23T10:26:06.277Z,27.30
2018-05-23T10:28:35.146Z,27.30
2018-05-23T10:31:03.256Z,27.20
2018-05-23T10:33:32.129Z,27.10
2018-05-23T10:36:00.251Z,27.10
2018-05-23T10:38:28.362Z,27.10
2018-05-23T10:40:56.490Z,27.10
2018-05-23T10:43:25.362Z,27.10
2018-05-23T10:45:53.475Z,27.10
2018-05-23T10:48:21.598Z,27.10
2018-05-23T10:50:49.709Z,27.10
2018-05-23T10:53:18.586Z,27.20
2018-05-23T10:55:46.700Z,27.20
2018-05-23T10:58:14.826Z,27.10
2018-05-23T11:00:42.937Z,27.10
2018-05-23T11:03:11.830Z,27.10
2018-05-23T11:05:40.760Z,27.10
2018-05-23T11:08:08.830Z,27.10
2018-05-23T11:10:36.941Z,27.20
2018-05-23T11:13:05.050Z,27.20
2018-05-23T11:15:33.161Z,27.20
2018-05-23T11:18:01.268Z,27.20
2018-05-23T11:20:29.386Z,27.20
2018-05-23T11:22:58.377Z,27.20
2018-05-23T11:25:26.517Z,27.10
2018-05-23T11:27:54.620Z,27.10
2018-05-23T11:30:22.723Z,27.10
2018-05-23T11:32:51.606Z,27.10
2018-05-23T11:35:20.466Z,27.10
2018-05-23T11:37:48.597Z,27.10
2018-05-23T11:40:16.718Z,27.10
2018-05-23T11:42:44.845Z,27.00
2018-05-23T11:45:13.758Z,27.00
2018-05-23T11:47:41.876Z,27.00
2018-05-23T11:50:09.988Z,26.90
2018-05-23T11:52:38.865Z,27.00
2018-05-23T11:55:06.985Z,26.90
2018-05-23T11:57:35.093Z,26.90
2018-05-23T12:00:03.217Z,26.90
2018-05-23T12:02:31.340Z,26.90
2018-05-23T12:04:59.498Z,26.90
2018-05-23T12:07:27.609Z,26.90
2018-05-23T12:09:55.722Z,26.90
2018-05-23T12:12:24.606Z,26.90
2018-05-23T12:14:53.510Z,26.80
2018-05-23T12:17:22.385Z,26.80
2018-05-23T12:19:50.501Z,26.80
2018-05-23T12:22:18.615Z,26.80
2018-05-23T12:24:46.734Z,26.80
2018-05-23T12:27:15.632Z,26.80
2018-05-23T12:29:44.527Z,26.70
2018-05-23T12:32:13.409Z,26.70
2018-05-23T12:34:41.667Z,26.70
2018-05-23T12:37:09.778Z,26.70
2018-05-23T12:39:38.667Z,26.70
2018-05-23T12:42:06.771Z,26.70
2018-05-23T12:44:34.901Z,26.70
2018-05-23T12:47:03.031Z,26.70
2018-05-23T12:49:31.140Z,26.60
2018-05-23T12:51:59.262Z,26.60
2018-05-23T12:54:28.133Z,26.60
2018-05-23T12:56:56.312Z,26.60
2018-05-23T12:59:24.419Z,26.60
2018-05-23T13:01:53.500Z,26.60
2018-05-23T13:04:22.398Z,26.50
2018-05-23T13:06:51.286Z,26.50
2018-05-23T13:09:19.394Z,26.50
2018-05-23T13:11:47.565Z,26.50
2018-05-23T13:14:15.704Z,26.50
2018-05-23T13:16:43.835Z,26.40
2018-05-23T13:19:11.963Z,26.40
2018-05-23T13:21:40.112Z,26.40
2018-05-23T13:24:08.210Z,26.40
2018-05-23T13:26:36.324Z,26.40
2018-05-23T13:29:05.215Z,26.40
2018-05-23T13:31:34.096Z,26.30
2018-05-23T13:34:02.228Z,26.30
2018-05-23T13:36:30.371Z,26.30
2018-05-23T13:38:59.276Z,26.30
2018-05-23T13:41:27.380Z,26.30
2018-05-23T13:43:55.494Z,26.20
2018-05-23T13:46:23.619Z,26.20
2018-05-23T13:48:51.727Z,26.20
2018-05-23T13:51:20.347Z,26.20
2018-05-23T13:53:49.225Z,26.20
2018-05-23T13:56:17.321Z,26.10
2018-05-23T13:58:46.219Z,26.10
2018-05-23T14:01:15.104Z,26.10
2018-05-23T14:03:44.009Z,26.10
2018-05-23T14:06:12.888Z,26.10
2018-05-23T14:08:41.091Z,26.00
2018-05-23T14:11:09.980Z,26.00
2018-05-23T14:13:38.865Z,26.00
2018-05-23T14:16:07.745Z,26.00
2018-05-23T14:18:35.973Z,26.00
2018-05-23T14:21:04.091Z,26.00
2018-05-23T14:23:32.204Z,26.00
2018-05-23T14:26:01.081Z,26.00
2018-05-23T14:28:30.004Z,26.00
2018-05-23T14:30:58.882Z,25.90
2018-05-23T14:33:27.768Z,25.90
2018-05-23T14:35:56.027Z,25.90
2018-05-23T14:38:24.103Z,25.90
2018-05-23T14:40:52.220Z,25.90
2018-05-23T14:43:21.177Z,25.90
2018-05-23T14:45:50.009Z,25.90
2018-05-23T14:48:18.881Z,25.80
2018-05-23T14:50:47.776Z,25.80
2018-05-23T14:53:15.902Z,25.80
2018-05-23T14:55:44.041Z,25.80
2018-05-23T14:58:12.943Z,25.80
2018-05-23T15:00:41.831Z,25.80
2018-05-23T15:03:09.949Z,25.80
2018-05-23T15:05:38.062Z,25.80
2018-05-23T15:08:06.172Z,25.80
2018-05-23T15:10:35.038Z,25.80
2018-05-23T15:13:03.158Z,25.70
2018-05-23T15:15:31.269Z,25.70
2018-05-23T15:17:59.404Z,25.70
2018-05-23T15:20:28.284Z,25.70
2018-05-23T15:22:57.163Z,25.70
2018-05-23T15:25:25.296Z,25.70
2018-05-23T15:27:53.433Z,25.70
2018-05-23T15:30:21.581Z,25.70
2018-05-23T15:32:49.703Z,25.70
2018-05-23T15:35:18.581Z,25.70
2018-05-23T15:37:46.704Z,25.70
2018-05-23T15:40:14.816Z,25.70
2018-05-23T15:42:42.977Z,25.70
2018-05-23T15:45:11.098Z,25.70
2018-05-23T15:47:40.030Z,25.70
2018-05-23T15:50:08.198Z,25.70
2018-05-23T15:52:36.311Z,25.70
2018-05-23T15:55:04.430Z,25.70
2018-05-23T15:57:33.303Z,25.70
2018-05-23T16:00:01.431Z,25.70
2018-05-23T16:02:29.545Z,25.70
2018-05-23T16:04:57.675Z,25.70
2018-05-23T16:07:25.795Z,25.70
2018-05-23T16:09:53.909Z,25.70
2018-05-23T16:12:22.791Z,25.70
2018-05-23T16:14:50.958Z,25.70
2018-05-23T16:17:19.046Z,25.70
2018-05-23T16:19:47.925Z,25.70
2018-05-23T16:22:16.054Z,25.70
2018-05-23T16:24:44.232Z,25.70
2018-05-23T16:27:12.354Z,25.70
2018-05-23T16:29:40.546Z,25.70
2018-05-23T16:32:09.409Z,25.80
2018-05-23T16:34:37.529Z,25.80
2018-05-23T16:37:05.648Z,25.80
2018-05-23T16:39:33.784Z,25.80
2018-05-23T16:42:01.906Z,25.80
2018-05-23T16:44:30.074Z,25.80
2018-05-23T16:46:58.938Z,25.80
2018-05-23T16:49:27.832Z,25.80
2018-05-23T16:51:56.717Z,25.80
2018-05-23T16:54:24.837Z,25.80
2018-05-23T16:56:53.045Z,25.80
2018-05-23T16:59:21.192Z,25.90
2018-05-23T17:01:49.329Z,25.90
2018-05-23T17:04:17.455Z,25.90
2018-05-23T17:06:45.582Z,25.90
2018-05-23T17:09:13.712Z,25.90
2018-05-23T17:11:41.836Z,25.90
2018-05-23T17:14:10.593Z,25.90
2018-05-23T17:16:38.729Z,25.90
2018-05-23T17:19:07.653Z,25.90
2018-05-23T17:21:35.786Z,25.90
2018-05-23T17:24:04.681Z,25.90
2018-05-23T17:26:32.809Z,25.90
2018-05-23T17:29:00.950Z,25.90
2018-05-23T17:31:29.845Z,25.90
2018-05-23T17:33:58.780Z,25.90
2018-05-23T17:36:26.894Z,26.00
2018-05-23T17:38:55.000Z,26.00
2018-05-23T17:41:23.902Z,26.00
2018-05-23T17:43:52.051Z,26.00
2018-05-23T17:46:20.957Z,26.00
2018-05-23T17:48:49.840Z,26.00
2018-05-23T17:51:18.002Z,26.00
2018-05-23T17:53:46.123Z,26.00
2018-05-23T17:56:14.253Z,26.00
2018-05-23T17:58:42.361Z,26.00
2018-05-23T18:01:11.241Z,26.00
2018-05-23T18:03:39.374Z,26.00
2018-05-23T18:06:07.516Z,26.00
2018-05-23T18:08:36.396Z,26.00
2018-05-23T18:11:05.281Z,26.00
2018-05-23T18:13:33.388Z,26.00
2018-05-23T18:16:02.271Z,26.00
2018-05-23T18:18:31.153Z,26.00
2018-05-23T18:20:59.292Z,26.00
2018-05-23T18:23:27.491Z,26.00
2018-05-23T18:25:56.322Z,26.00
2018-05-23T18:28:25.290Z,26.00
2018-05-23T18:30:54.110Z,26.00
2018-05-23T18:33:22.994Z,25.90
2018-05-23T18:35:51.936Z,25.90
2018-05-23T18:38:20.081Z,25.90
2018-05-23T18:40:48.975Z,25.90
2018-05-23T18:43:18.008Z,25.90
2018-05-23T18:45:46.126Z,25.80
2018-05-23T18:48:14.257Z,25.80
2018-05-23T18:50:42.369Z,25.80
2018-05-23T18:53:10.521Z,25.80
2018-05-23T18:55:38.659Z,25.80
2018-05-23T18:58:07.568Z,25.70
2018-05-23T19:00:35.768Z,25.70
2018-05-23T19:03:03.945Z,25.70
2018-05-23T19:05:32.077Z,25.70
2018-05-23T19:08:00.195Z,25.70
2018-05-23T19:10:28.348Z,25.70
2018-05-23T19:12:57.225Z,25.70
2018-05-23T19:15:25.329Z,25.70
2018-05-23T19:17:53.547Z,25.70
2018-05-23T19:20:21.659Z,25.70
2018-05-23T19:22:49.791Z,25.60
2018-05-23T19:25:17.938Z,25.60
2018-05-23T19:27:46.058Z,25.60
2018-05-23T19:30:14.180Z,25.60
2018-05-23T19:32:43.063Z,25.60
2018-05-23T19:35:11.970Z,25.60
2018-05-23T19:37:40.845Z,25.60
2018-05-23T19:40:08.993Z,25.60
2018-05-23T19:42:37.127Z,25.60
2018-05-23T19:45:06.030Z,25.60
2018-05-23T19:47:34.175Z,25.50
2018-05-23T19:50:02.303Z,25.50
2018-05-23T19:52:30.439Z,25.50
2018-05-23T19:54:59.354Z,25.50
2018-05-23T19:57:27.490Z,25.50
2018-05-23T19:59:55.730Z,25.50
2018-05-23T20:02:23.880Z,25.50
2018-05-23T20:04:52.810Z,25.50
2018-05-23T20:07:20.947Z,25.40
2018-05-23T20:09:49.852Z,25.40
2018-05-23T20:12:18.728Z,25.40
2018-05-23T20:14:47.907Z,25.40
2018-05-23T20:17:16.189Z,25.30
2018-05-23T20:19:44.306Z,25.30
2018-05-23T20:22:13.208Z,25.30
2018-05-23T20:24:42.082Z,25.30
2018-05-23T20:27:10.990Z,25.30
2018-05-23T20:29:39.868Z,25.30
2018-05-23T20:32:08.778Z,25.30
2018-05-23T20:34:37.656Z,25.30
2018-05-23T20:37:05.859Z,25.20
2018-05-23T20:39:34.748Z,25.20
2018-05-23T20:42:03.622Z,25.20
2018-05-23T20:44:31.765Z,25.20
2018-05-23T20:46:59.898Z,25.20
2018-05-23T20:49:28.803Z,25.20
2018-05-23T20:51:56.929Z,25.20
2018-05-23T20:54:25.043Z,25.10
2018-05-23T20:56:53.945Z,25.10
2018-05-23T20:59:22.839Z,25.10
2018-05-23T21:01:51.729Z,25.10
2018-05-23T21:04:20.614Z,25.00
2018-05-23T21:06:49.541Z,25.00
2018-05-23T21:09:17.658Z,25.00
2018-05-23T21:11:45.795Z,25.00
2018-05-23T21:14:13.913Z,25.00
2018-05-23T21:16:42.044Z,24.90
2018-05-23T21:19:10.165Z,24.90
2018-05-23T21:21:38.281Z,24.90
2018-05-23T21:24:07.188Z,24.90
2018-05-23T21:26:36.059Z,24.90
2018-05-23T21:29:04.956Z,24.80
2018-05-23T21:31:33.077Z,24.80
2018-05-23T21:34:01.197Z,24.80
2018-05-23T21:36:29.317Z,24.80
2018-05-23T21:38:57.417Z,24.70
2018-05-23T21:41:25.540Z,24.70
2018-05-23T21:43:53.655Z,24.70
2018-05-23T21:46:21.789Z,24.70
2018-05-23T21:48:49.904Z,24.70
2018-05-23T21:51:18.018Z,24.60
2018-05-23T21:53:46.133Z,24.60
2018-05-23T21:56:15.016Z,24.60
2018-05-23T21:58:43.145Z,24.60
2018-05-23T22:01:14.187Z,24.50
2018-05-23T22:03:42.314Z,24.50
2018-05-23T22:06:10.421Z,24.50
2018-05-23T22:08:38.567Z,24.50
2018-05-23T22:11:06.725Z,24.50
2018-05-23T22:13:34.846Z,24.40
2018-05-23T22:16:03.730Z,24.40
2018-05-23T22:18:31.828Z,24.40
2018-05-23T22:20:59.953Z,24.40
2018-05-23T22:23:28.064Z,24.40
2018-05-23T22:25:56.967Z,24.40
2018-05-23T22:28:25.837Z,24.40
2018-05-23T22:30:53.965Z,24.30
2018-05-23T22:33:22.063Z,24.30
2018-05-23T22:35:50.261Z,24.30
2018-05-23T22:38:18.347Z,24.30
2018-05-23T22:40:46.463Z,24.30
2018-05-23T22:43:14.595Z,24.30
2018-05-23T22:45:42.722Z,24.30
2018-05-23T22:48:10.865Z,24.20
2018-05-23T22:50:39.745Z,24.20
2018-05-23T22:53:07.909Z,24.20
2018-05-23T22:55:36.029Z,24.20
2018-05-23T22:58:04.905Z,24.20
2018-05-23T23:00:33.032Z,24.20
2018-05-23T23:03:01.143Z,24.20
2018-05-23T23:05:29.266Z,24.20
2018-05-23T23:07:58.142Z,24.20
2018-05-23T23:10:27.029Z,24.20
2018-05-23T23:12:55.916Z,24.10
2018-05-23T23:15:24.069Z,24.10
2018-05-23T23:17:52.177Z,24.10
2018-05-23T23:20:20.283Z,24.10
2018-05-23T23:22:48.400Z,24.10
2018-05-23T23:25:16.505Z,24.10
2018-05-23T23:27:44.659Z,24.00
2018-05-23T23:30:12.772Z,24.00
2018-05-23T23:32:40.895Z,24.00
2018-05-23T23:35:09.015Z,24.00
2018-05-23T23:37:37.144Z,24.00
2018-05-23T23:40:05.271Z,23.90
2018-05-23T23:42:33.400Z,24.00
2018-05-23T23:45:01.529Z,23.90
2018-05-23T23:47:29.635Z,23.90
2018-05-23T23:49:57.764Z,23.90
2018-05-23T23:52:25.874Z,23.90
2018-05-23T23:54:54.756Z,23.80
2018-05-23T23:57:22.868Z,23.80
2018-05-23T23:59:51.030Z,23.80
